Main page
METAR-TAF:

METAR-TAF

Airports :

Downtown Manhattan Heliport

New York City, New York, United States

latitude: 40-42-04N, longitude: 074-00-32W, elevation: 7 ft

Current weather observation

The report was made 21 minutes ago, at 17:56 UTC
Wind 18 mph from the West with gusts up to 31 mph, varying between West/Southwest and Northwest
Temperature 43°F
Humidity 45%
Pressure 29.56 in. Hg
Visibility: 10 miles
Overcast at a height of 4900 ft

METAR: KJRB 271756Z AUTO 27016G27KT 240V310 10SM OVC049 06/M05 A2956 RMK AO2 PK WND 26030/1701 SLP009 T00611050 10061 20044 51020

Time: 13:17 (18:17 UTC)


TAF: missing

Weather observations and forecasts of more than 4000 airports (METAR and TAF reports).

The available stations are represented by yellow and red dots on the map.

Hover mouse over dot to see the name of the station.

Then click to see weather observations and forecasts.

To change the map : click on the green buttons with a black cross to zoom in, on the green button with a dash to zoom out, or on the green arrows for adjacent maps.


METAR-TAF: